sensor_id;sensor_type;location;lat;lon;timestamp;P1;durP1;ratioP1;P2;durP2;ratioP2
5762;SDS011;2906;53.282;9.508;2023-04-03T00:00:33;8.73;;;1.27;;
5762;SDS011;2906;53.282;9.508;2023-04-03T00:01:36;13.98;;;1.80;;
5762;SDS011;2906;53.282;9.508;2023-04-03T00:02:38;12.77;;;1.85;;
5762;SDS011;2906;53.282;9.508;2023-04-03T00:03:40;10.07;;;1.58;;
5762;SDS011;2906;53.282;9.508;2023-04-03T00:04:44;11.13;;;1.83;;
5762;SDS011;2906;53.282;9.508;2023-04-03T00:05:46;14.95;;;1.73;;
5762;SDS011;2906;53.282;9.508;2023-04-03T00:06:48;11.98;;;1.70;;
5762;SDS011;2906;53.282;9.508;2023-04-03T00:07:49;11.35;;;1.50;;
5762;SDS011;2906;53.282;9.508;2023-04-03T00:08:52;11.70;;;1.70;;
5762;SDS011;2906;53.282;9.508;2023-04-03T00:09:53;16.98;;;2.08;;
5762;SDS011;2906;53.282;9.508;2023-04-03T00:10:56;10.98;;;2.05;;
5762;SDS011;2906;53.282;9.508;2023-04-03T00:11:57;9.07;;;1.40;;
5762;SDS011;2906;53.282;9.508;2023-04-03T00:13:00;11.18;;;2.13;;
5762;SDS011;2906;53.282;9.508;2023-04-03T00:14:01;10.50;;;1.90;;
5762;SDS011;2906;53.282;9.508;2023-04-03T00:15:04;10.57;;;1.50;;
5762;SDS011;2906;53.282;9.508;2023-04-03T00:16:06;16.15;;;1.95;;
5762;SDS011;2906;53.282;9.508;2023-04-03T00:17:08;11.73;;;2.40;;
5762;SDS011;2906;53.282;9.508;2023-04-03T00:18:10;15.20;;;1.65;;
5762;SDS011;2906;53.282;9.508;2023-04-03T00:19:12;13.80;;;1.90;;
5762;SDS011;2906;53.282;9.508;2023-04-03T00:20:15;14.60;;;1.83;;
5762;SDS011;2906;53.282;9.508;2023-04-03T00:21:17;10.23;;;1.60;;
5762;SDS011;2906;53.282;9.508;2023-04-03T00:22:19;13.98;;;2.20;;
5762;SDS011;2906;53.282;9.508;2023-04-03T00:23:21;9.77;;;1.73;;
5762;SDS011;2906;53.282;9.508;2023-04-03T00:24:23;14.35;;;1.50;;
5762;SDS011;2906;53.282;9.508;2023-04-03T00:25:26;9.48;;;1.20;;
5762;SDS011;2906;53.282;9.508;2023-04-03T00:26:27;13.63;;;2.13;;
5762;SDS011;2906;53.282;9.508;2023-04-03T00:27:29;12.70;;;2.05;;
5762;SDS011;2906;53.282;9.508;2023-04-03T00:28:31;11.98;;;1.77;;
5762;SDS011;2906;53.282;9.508;2023-04-03T00:29:33;13.45;;;1.45;;
5762;SDS011;2906;53.282;9.508;2023-04-03T00:30:34;13.10;;;2.08;;
5762;SDS011;2906;53.282;9.508;2023-04-03T00:31:37;10.55;;;1.70;;
5762;SDS011;2906;53.282;9.508;2023-04-03T00:32:38;10.18;;;1.60;;
5762;SDS011;2906;53.282;9.508;2023-04-03T00:33:40;12.80;;;1.85;;
5762;SDS011;2906;53.282;9.508;2023-04-03T00:34:42;13.77;;;1.98;;
5762;SDS011;2906;53.282;9.508;2023-04-03T00:35:45;17.15;;;2.10;;
5762;SDS011;2906;53.282;9.508;2023-04-03T00:36:47;17.58;;;2.08;;
5762;SDS011;2906;53.282;9.508;2023-04-03T00:37:50;9.45;;;1.30;;
5762;SDS011;2906;53.282;9.508;2023-04-03T00:38:52;8.02;;;1.55;;
5762;SDS011;2906;53.282;9.508;2023-04-03T00:39:54;13.70;;;1.92;;
5762;SDS011;2906;53.282;9.508;2023-04-03T00:40:55;16.67;;;2.22;;
5762;SDS011;2906;53.282;9.508;2023-04-03T00:41:58;10.43;;;1.65;;
5762;SDS011;2906;53.282;9.508;2023-04-03T00:42:59;8.80;;;1.60;;
5762;SDS011;2906;53.282;9.508;2023-04-03T00:45:26;11.80;;;1.38;;
5762;SDS011;2906;53.282;9.508;2023-04-03T00:46:29;10.82;;;1.83;;
5762;SDS011;2906;53.282;9.508;2023-04-03T00:47:31;10.27;;;1.70;;
5762;SDS011;2906;53.282;9.508;2023-04-03T00:48:33;12.43;;;1.80;;
5762;SDS011;2906;53.282;9.508;2023-04-03T00:49:36;9.80;;;1.30;;
5762;SDS011;2906;53.282;9.508;2023-04-03T00:50:38;12.27;;;1.30;;
5762;SDS011;2906;53.282;9.508;2023-04-03T00:51:42;15.82;;;2.20;;
5762;SDS011;2906;53.282;9.508;2023-04-03T00:52:44;12.40;;;1.70;;
5762;SDS011;2906;53.282;9.508;2023-04-03T00:53:50;13.55;;;2.00;;
5762;SDS011;2906;53.282;9.508;2023-04-03T00:54:54;13.25;;;1.65;;
5762;SDS011;2906;53.282;9.508;2023-04-03T00:55:55;19.48;;;1.90;;
5762;SDS011;2906;53.282;9.508;2023-04-03T00:56:58;11.82;;;2.05;;
5762;SDS011;2906;53.282;9.508;2023-04-03T00:58:00;12.85;;;2.03;;
5762;SDS011;2906;53.282;9.508;2023-04-03T00:59:04;10.20;;;1.50;;
5762;SDS011;2906;53.282;9.508;2023-04-03T01:00:07;11.35;;;1.40;;
5762;SDS011;2906;53.282;9.508;2023-04-03T01:01:11;11.13;;;1.60;;
5762;SDS011;2906;53.282;9.508;2023-04-03T01:02:14;10.05;;;1.52;;
5762;SDS011;2906;53.282;9.508;2023-04-03T01:03:16;13.80;;;2.13;;
5762;SDS011;2906;53.282;9.508;2023-04-03T01:04:26;9.02;;;1.75;;
5762;SDS011;2906;53.282;9.508;2023-04-03T01:05:28;11.45;;;1.67;;
5762;SDS011;2906;53.282;9.508;2023-04-03T01:06:31;14.18;;;1.63;;
5762;SDS011;2906;53.282;9.508;2023-04-03T01:07:35;13.75;;;1.95;;
5762;SDS011;2906;53.282;9.508;2023-04-03T01:08:37;10.48;;;1.35;;
5762;SDS011;2906;53.282;9.508;2023-04-03T01:09:40;9.10;;;1.30;;
5762;SDS011;2906;53.282;9.508;2023-04-03T01:10:42;14.10;;;2.00;;
5762;SDS011;2906;53.282;9.508;2023-04-03T01:11:45;20.90;;;1.67;;
5762;SDS011;2906;53.282;9.508;2023-04-03T01:12:47;9.32;;;1.50;;
5762;SDS011;2906;53.282;9.508;2023-04-03T01:13:50;14.25;;;1.65;;
5762;SDS011;2906;53.282;9.508;2023-04-03T01:14:52;7.88;;;1.20;;
5762;SDS011;2906;53.282;9.508;2023-04-03T01:15:55;17.27;;;1.38;;
5762;SDS011;2906;53.282;9.508;2023-04-03T01:16:57;12.93;;;1.98;;
5762;SDS011;2906;53.282;9.508;2023-04-03T01:17:59;14.10;;;2.10;;
5762;SDS011;2906;53.282;9.508;2023-04-03T01:19:02;15.60;;;1.45;;
5762;SDS011;2906;53.282;9.508;2023-04-03T01:20:14;11.48;;;1.50;;
5762;SDS011;2906;53.282;9.508;2023-04-03T01:21:25;9.82;;;1.50;;
5762;SDS011;2906;53.282;9.508;2023-04-03T01:22:34;9.88;;;1.75;;
5762;SDS011;2906;53.282;9.508;2023-04-03T01:23:45;11.85;;;1.83;;
5762;SDS011;2906;53.282;9.508;2023-04-03T01:24:50;11.60;;;1.85;;
5762;SDS011;2906;53.282;9.508;2023-04-03T01:25:54;11.85;;;1.45;;
5762;SDS011;2906;53.282;9.508;2023-04-03T01:26:56;12.68;;;1.65;;
5762;SDS011;2906;53.282;9.508;2023-04-03T01:27:58;11.40;;;1.92;;
5762;SDS011;2906;53.282;9.508;2023-04-03T01:29:00;9.98;;;1.75;;
5762;SDS011;2906;53.282;9.508;2023-04-03T01:30:01;17.60;;;1.90;;
5762;SDS011;2906;53.282;9.508;2023-04-03T01:31:06;9.85;;;1.50;;
5762;SDS011;2906;53.282;9.508;2023-04-03T01:32:11;10.55;;;1.38;;
5762;SDS011;2906;53.282;9.508;2023-04-03T01:33:13;12.50;;;1.70;;
5762;SDS011;2906;53.282;9.508;2023-04-03T01:34:15;14.80;;;1.90;;
5762;SDS011;2906;53.282;9.508;2023-04-03T01:35:17;9.43;;;1.42;;
5762;SDS011;2906;53.282;9.508;2023-04-03T01:36:20;19.95;;;2.17;;
5762;SDS011;2906;53.282;9.508;2023-04-03T01:37:24;15.02;;;2.15;;
5762;SDS011;2906;53.282;9.508;2023-04-03T01:38:26;12.38;;;1.92;;
5762;SDS011;2906;53.282;9.508;2023-04-03T01:39:28;11.38;;;1.50;;
5762;SDS011;2906;53.282;9.508;2023-04-03T01:40:30;16.38;;;1.70;;
5762;SDS011;2906;53.282;9.508;2023-04-03T01:41:31;15.07;;;2.17;;
5762;SDS011;2906;53.282;9.508;2023-04-03T01:42:33;9.40;;;1.70;;
5762;SDS011;2906;53.282;9.508;2023-04-03T01:43:35;11.90;;;1.40;;
5762;SDS011;2906;53.282;9.508;2023-04-03T01:44:37;12.57;;;2.28;;
5762;SDS011;2906;53.282;9.508;2023-04-03T01:45:38;11.50;;;2.10;;
5762;SDS011;2906;53.282;9.508;2023-04-03T01:46:41;11.80;;;1.50;;
5762;SDS011;2906;53.282;9.508;2023-04-03T01:47:44;8.50;;;1.58;;
5762;SDS011;2906;53.282;9.508;2023-04-03T01:48:46;13.68;;;2.08;;
5762;SDS011;2906;53.282;9.508;2023-04-03T01:49:47;16.63;;;1.95;;
5762;SDS011;2906;53.282;9.508;2023-04-03T01:50:49;10.13;;;1.85;;
5762;SDS011;2906;53.282;9.508;2023-04-03T01:51:51;12.43;;;1.60;;
5762;SDS011;2906;53.282;9.508;2023-04-03T01:52:53;13.38;;;1.90;;
5762;SDS011;2906;53.282;9.508;2023-04-03T01:53:54;26.42;;;1.77;;
5762;SDS011;2906;53.282;9.508;2023-04-03T01:54:56;18.05;;;2.05;;
5762;SDS011;2906;53.282;9.508;2023-04-03T01:55:58;14.05;;;2.10;;
5762;SDS011;2906;53.282;9.508;2023-04-03T01:57:00;10.32;;;1.45;;
5762;SDS011;2906;53.282;9.508;2023-04-03T01:58:01;8.25;;;1.50;;
5762;SDS011;2906;53.282;9.508;2023-04-03T01:59:04;12.20;;;1.92;;
5762;SDS011;2906;53.282;9.508;2023-04-03T02:00:05;12.65;;;1.83;;
5762;SDS011;2906;53.282;9.508;2023-04-03T02:01:09;10.50;;;1.83;;
5762;SDS011;2906;53.282;9.508;2023-04-03T02:02:10;13.93;;;1.83;;
5762;SDS011;2906;53.282;9.508;2023-04-03T02:03:16;13.88;;;1.83;;
5762;SDS011;2906;53.282;9.508;2023-04-03T02:04:17;17.88;;;2.00;;
5762;SDS011;2906;53.282;9.508;2023-04-03T02:05:20;10.57;;;1.77;;
5762;SDS011;2906;53.282;9.508;2023-04-03T02:06:21;19.20;;;2.75;;
5762;SDS011;2906;53.282;9.508;2023-04-03T02:07:23;14.55;;;2.30;;
5762;SDS011;2906;53.282;9.508;2023-04-03T02:08:25;12.85;;;1.85;;
5762;SDS011;2906;53.282;9.508;2023-04-03T02:09:27;8.85;;;1.50;;
5762;SDS011;2906;53.282;9.508;2023-04-03T02:10:28;12.10;;;2.00;;
5762;SDS011;2906;53.282;9.508;2023-04-03T02:11:31;13.90;;;1.90;;
5762;SDS011;2906;53.282;9.508;2023-04-03T02:12:32;11.00;;;1.77;;
5762;SDS011;2906;53.282;9.508;2023-04-03T02:13:34;9.43;;;1.58;;
5762;SDS011;2906;53.282;9.508;2023-04-03T02:14:36;18.25;;;2.80;;
5762;SDS011;2906;53.282;9.508;2023-04-03T02:15:38;9.77;;;1.48;;
5762;SDS011;2906;53.282;9.508;2023-04-03T02:16:40;15.43;;;1.80;;
5762;SDS011;2906;53.282;9.508;2023-04-03T02:17:42;11.18;;;1.98;;
5762;SDS011;2906;53.282;9.508;2023-04-03T02:18:45;13.88;;;1.52;;
5762;SDS011;2906;53.282;9.508;2023-04-03T02:19:48;15.38;;;1.98;;
5762;SDS011;2906;53.282;9.508;2023-04-03T02:20:49;16.63;;;2.47;;
5762;SDS011;2906;53.282;9.508;2023-04-03T02:21:51;11.63;;;2.03;;
5762;SDS011;2906;53.282;9.508;2023-04-03T02:22:52;11.32;;;1.80;;
5762;SDS011;2906;53.282;9.508;2023-04-03T02:23:55;9.98;;;1.58;;
5762;SDS011;2906;53.282;9.508;2023-04-03T02:24:56;14.35;;;2.20;;
5762;SDS011;2906;53.282;9.508;2023-04-03T02:26:02;7.60;;;1.30;;
5762;SDS011;2906;53.282;9.508;2023-04-03T02:27:04;12.75;;;1.40;;
5762;SDS011;2906;53.282;9.508;2023-04-03T02:28:06;13.65;;;2.40;;
5762;SDS011;2906;53.282;9.508;2023-04-03T02:29:08;11.85;;;1.88;;
5762;SDS011;2906;53.282;9.508;2023-04-03T02:30:10;9.10;;;1.67;;
5762;SDS011;2906;53.282;9.508;2023-04-03T02:31:12;22.35;;;2.33;;
5762;SDS011;2906;53.282;9.508;2023-04-03T02:32:15;16.45;;;1.90;;
5762;SDS011;2906;53.282;9.508;2023-04-03T02:33:16;12.23;;;2.15;;
5762;SDS011;2906;53.282;9.508;2023-04-03T02:34:20;12.35;;;1.73;;
5762;SDS011;2906;53.282;9.508;2023-04-03T02:35:21;13.75;;;1.88;;
5762;SDS011;2906;53.282;9.508;2023-04-03T02:36:24;15.40;;;2.38;;
5762;SDS011;2906;53.282;9.508;2023-04-03T02:37:25;8.75;;;1.55;;
5762;SDS011;2906;53.282;9.508;2023-04-03T02:38:28;16.13;;;2.33;;
5762;SDS011;2906;53.282;9.508;2023-04-03T02:39:29;11.18;;;2.08;;
5762;SDS011;2906;53.282;9.508;2023-04-03T02:40:31;10.50;;;1.55;;
5762;SDS011;2906;53.282;9.508;2023-04-03T02:41:32;9.98;;;1.98;;
5762;SDS011;2906;53.282;9.508;2023-04-03T02:42:35;21.00;;;2.10;;
5762;SDS011;2906;53.282;9.508;2023-04-03T02:43:37;10.70;;;2.17;;
5762;SDS011;2906;53.282;9.508;2023-04-03T02:44:39;7.75;;;1.42;;
5762;SDS011;2906;53.282;9.508;2023-04-03T02:45:40;8.55;;;2.00;;
5762;SDS011;2906;53.282;9.508;2023-04-03T02:46:43;16.02;;;1.92;;
5762;SDS011;2906;53.282;9.508;2023-04-03T02:47:44;11.13;;;1.40;;
5762;SDS011;2906;53.282;9.508;2023-04-03T02:48:47;15.25;;;1.70;;
5762;SDS011;2906;53.282;9.508;2023-04-03T02:49:49;14.10;;;2.00;;
5762;SDS011;2906;53.282;9.508;2023-04-03T02:50:52;12.38;;;1.50;;
5762;SDS011;2906;53.282;9.508;2023-04-03T02:51:54;10.23;;;1.80;;
5762;SDS011;2906;53.282;9.508;2023-04-03T02:52:57;15.27;;;1.70;;
5762;SDS011;2906;53.282;9.508;2023-04-03T02:53:58;13.00;;;1.85;;
5762;SDS011;2906;53.282;9.508;2023-04-03T02:55:01;18.20;;;2.78;;
5762;SDS011;2906;53.282;9.508;2023-04-03T02:56:02;11.70;;;1.77;;
5762;SDS011;2906;53.282;9.508;2023-04-03T02:57:05;8.93;;;1.77;;
5762;SDS011;2906;53.282;9.508;2023-04-03T02:58:08;15.00;;;2.25;;
5762;SDS011;2906;53.282;9.508;2023-04-03T02:59:11;8.68;;;1.65;;
5762;SDS011;2906;53.282;9.508;2023-04-03T03:00:12;9.20;;;1.52;;
5762;SDS011;2906;53.282;9.508;2023-04-03T03:01:15;11.18;;;1.63;;
5762;SDS011;2906;53.282;9.508;2023-04-03T03:02:16;14.52;;;2.25;;
5762;SDS011;2906;53.282;9.508;2023-04-03T03:03:18;10.30;;;1.60;;
5762;SDS011;2906;53.282;9.508;2023-04-03T03:04:20;12.05;;;2.00;;
5762;SDS011;2906;53.282;9.508;2023-04-03T03:05:24;11.68;;;2.00;;
5762;SDS011;2906;53.282;9.508;2023-04-03T03:06:25;12.77;;;1.63;;
5762;SDS011;2906;53.282;9.508;2023-04-03T03:07:28;11.45;;;1.90;;
5762;SDS011;2906;53.282;9.508;2023-04-03T03:08:29;11.95;;;1.75;;
5762;SDS011;2906;53.282;9.508;2023-04-03T03:09:31;16.50;;;1.85;;
5762;SDS011;2906;53.282;9.508;2023-04-03T03:10:33;11.57;;;2.13;;
5762;SDS011;2906;53.282;9.508;2023-04-03T03:11:35;9.35;;;1.85;;
5762;SDS011;2906;53.282;9.508;2023-04-03T03:12:36;24.70;;;2.40;;
5762;SDS011;2906;53.282;9.508;2023-04-03T03:13:38;8.30;;;2.03;;
5762;SDS011;2906;53.282;9.508;2023-04-03T03:14:40;13.07;;;2.08;;
5762;SDS011;2906;53.282;9.508;2023-04-03T03:15:42;16.05;;;2.50;;
5762;SDS011;2906;53.282;9.508;2023-04-03T03:16:44;20.95;;;2.60;;
5762;SDS011;2906;53.282;9.508;2023-04-03T03:17:46;17.55;;;2.00;;
5762;SDS011;2906;53.282;9.508;2023-04-03T03:18:48;13.85;;;2.08;;
5762;SDS011;2906;53.282;9.508;2023-04-03T03:19:50;10.85;;;1.92;;
5762;SDS011;2906;53.282;9.508;2023-04-03T03:20:53;11.30;;;1.77;;
5762;SDS011;2906;53.282;9.508;2023-04-03T03:21:56;15.73;;;1.85;;
5762;SDS011;2906;53.282;9.508;2023-04-03T03:22:57;11.38;;;1.63;;
5762;SDS011;2906;53.282;9.508;2023-04-03T03:24:00;9.13;;;1.63;;
5762;SDS011;2906;53.282;9.508;2023-04-03T03:25:01;11.70;;;2.00;;
5762;SDS011;2906;53.282;9.508;2023-04-03T03:26:05;9.80;;;2.15;;
5762;SDS011;2906;53.282;9.508;2023-04-03T03:27:06;16.45;;;1.95;;
5762;SDS011;2906;53.282;9.508;2023-04-03T03:28:08;11.85;;;2.15;;
5762;SDS011;2906;53.282;9.508;2023-04-03T03:29:11;8.60;;;1.65;;
5762;SDS011;2906;53.282;9.508;2023-04-03T03:30:13;10.18;;;1.70;;
5762;SDS011;2906;53.282;9.508;2023-04-03T03:31:15;14.57;;;1.60;;
5762;SDS011;2906;53.282;9.508;2023-04-03T03:32:17;9.82;;;2.00;;
5762;SDS011;2906;53.282;9.508;2023-04-03T03:33:18;16.92;;;2.42;;
5762;SDS011;2906;53.282;9.508;2023-04-03T03:34:21;10.55;;;1.70;;
5762;SDS011;2906;53.282;9.508;2023-04-03T03:35:23;9.20;;;1.70;;
5762;SDS011;2906;53.282;9.508;2023-04-03T03:36:26;10.38;;;1.90;;
5762;SDS011;2906;53.282;9.508;2023-04-03T03:37:29;16.98;;;1.95;;
5762;SDS011;2906;53.282;9.508;2023-04-03T03:38:30;15.05;;;2.05;;
5762;SDS011;2906;53.282;9.508;2023-04-03T03:39:32;11.57;;;2.05;;
5762;SDS011;2906;53.282;9.508;2023-04-03T03:40:34;12.85;;;1.98;;
5762;SDS011;2906;53.282;9.508;2023-04-03T03:41:36;16.02;;;1.60;;
5762;SDS011;2906;53.282;9.508;2023-04-03T03:42:39;10.32;;;1.90;;
5762;SDS011;2906;53.282;9.508;2023-04-03T03:43:40;11.68;;;1.77;;
5762;SDS011;2906;53.282;9.508;2023-04-03T03:44:42;10.00;;;1.77;;
5762;SDS011;2906;53.282;9.508;2023-04-03T03:45:44;11.55;;;1.63;;
5762;SDS011;2906;53.282;9.508;2023-04-03T03:46:46;17.30;;;2.08;;
5762;SDS011;2906;53.282;9.508;2023-04-03T03:47:47;12.25;;;1.83;;
5762;SDS011;2906;53.282;9.508;2023-04-03T03:48:50;17.80;;;1.63;;
5762;SDS011;2906;53.282;9.508;2023-04-03T03:49:51;10.05;;;1.90;;
5762;SDS011;2906;53.282;9.508;2023-04-03T03:50:53;10.15;;;2.13;;
5762;SDS011;2906;53.282;9.508;2023-04-03T03:51:56;13.00;;;1.85;;
5762;SDS011;2906;53.282;9.508;2023-04-03T03:52:59;15.13;;;1.85;;
5762;SDS011;2906;53.282;9.508;2023-04-03T03:54:01;13.73;;;2.47;;
5762;SDS011;2906;53.282;9.508;2023-04-03T03:55:03;14.10;;;2.25;;
5762;SDS011;2906;53.282;9.508;2023-04-03T03:56:06;12.48;;;2.20;;
5762;SDS011;2906;53.282;9.508;2023-04-03T03:57:08;18.13;;;1.95;;
5762;SDS011;2906;53.282;9.508;2023-04-03T03:58:10;11.80;;;1.55;;
5762;SDS011;2906;53.282;9.508;2023-04-03T03:59:12;17.90;;;1.70;;
5762;SDS011;2906;53.282;9.508;2023-04-03T04:00:13;11.63;;;1.77;;
5762;SDS011;2906;53.282;9.508;2023-04-03T04:01:16;21.50;;;1.90;;
5762;SDS011;2906;53.282;9.508;2023-04-03T04:02:18;10.70;;;1.83;;
5762;SDS011;2906;53.282;9.508;2023-04-03T04:03:20;14.07;;;1.80;;
5762;SDS011;2906;53.282;9.508;2023-04-03T04:04:21;10.80;;;1.88;;
5762;SDS011;2906;53.282;9.508;2023-04-03T04:05:24;9.65;;;1.50;;
5762;SDS011;2906;53.282;9.508;2023-04-03T04:06:25;18.35;;;2.00;;
5762;SDS011;2906;53.282;9.508;2023-04-03T04:07:29;16.27;;;1.60;;
5762;SDS011;2906;53.282;9.508;2023-04-03T04:08:30;11.43;;;2.50;;
5762;SDS011;2906;53.282;9.508;2023-04-03T04:09:33;9.55;;;1.63;;
5762;SDS011;2906;53.282;9.508;2023-04-03T04:10:34;9.85;;;2.03;;
5762;SDS011;2906;53.282;9.508;2023-04-03T04:11:37;15.75;;;2.00;;
5762;SDS011;2906;53.282;9.508;2023-04-03T04:12:40;12.80;;;2.00;;
5762;SDS011;2906;53.282;9.508;2023-04-03T04:13:41;7.55;;;1.50;;
5762;SDS011;2906;53.282;9.508;2023-04-03T04:14:44;12.52;;;1.98;;
5762;SDS011;2906;53.282;9.508;2023-04-03T04:15:47;13.25;;;2.20;;
5762;SDS011;2906;53.282;9.508;2023-04-03T04:16:49;18.33;;;1.70;;
5762;SDS011;2906;53.282;9.508;2023-04-03T04:17:50;8.70;;;2.08;;
5762;SDS011;2906;53.282;9.508;2023-04-03T04:18:53;13.27;;;2.20;;
5762;SDS011;2906;53.282;9.508;2023-04-03T04:19:54;14.07;;;2.33;;
5762;SDS011;2906;53.282;9.508;2023-04-03T04:20:57;10.88;;;2.10;;
5762;SDS011;2906;53.282;9.508;2023-04-03T04:21:58;11.90;;;1.85;;
5762;SDS011;2906;53.282;9.508;2023-04-03T04:23:02;14.07;;;1.42;;
5762;SDS011;2906;53.282;9.508;2023-04-03T04:24:03;12.18;;;1.80;;
5762;SDS011;2906;53.282;9.508;2023-04-03T04:25:06;10.57;;;1.90;;
5762;SDS011;2906;53.282;9.508;2023-04-03T04:26:08;15.13;;;1.80;;
5762;SDS011;2906;53.282;9.508;2023-04-03T04:27:10;21.83;;;1.90;;
5762;SDS011;2906;53.282;9.508;2023-04-03T04:28:12;11.02;;;1.73;;
5762;SDS011;2906;53.282;9.508;2023-04-03T04:29:14;19.00;;;2.42;;
5762;SDS011;2906;53.282;9.508;2023-04-03T04:30:15;13.45;;;2.03;;
5762;SDS011;2906;53.282;9.508;2023-04-03T04:31:18;15.48;;;2.65;;
5762;SDS011;2906;53.282;9.508;2023-04-03T04:32:19;7.55;;;1.70;;
5762;SDS011;2906;53.282;9.508;2023-04-03T04:33:22;8.43;;;1.55;;
5762;SDS011;2906;53.282;9.508;2023-04-03T04:34:24;11.73;;;1.85;;
5762;SDS011;2906;53.282;9.508;2023-04-03T04:35:27;12.45;;;1.58;;
5762;SDS011;2906;53.282;9.508;2023-04-03T04:36:28;19.90;;;2.47;;
5762;SDS011;2906;53.282;9.508;2023-04-03T04:37:30;11.98;;;2.00;;
5762;SDS011;2906;53.282;9.508;2023-04-03T04:38:33;14.20;;;2.53;;
5762;SDS011;2906;53.282;9.508;2023-04-03T04:39:36;12.50;;;1.80;;
5762;SDS011;2906;53.282;9.508;2023-04-03T04:40:38;14.35;;;2.03;;
5762;SDS011;2906;53.282;9.508;2023-04-03T04:41:41;14.10;;;2.10;;
5762;SDS011;2906;53.282;9.508;2023-04-03T04:42:42;14.73;;;2.35;;
5762;SDS011;2906;53.282;9.508;2023-04-03T04:43:44;12.88;;;1.80;;
5762;SDS011;2906;53.282;9.508;2023-04-03T04:44:46;14.13;;;2.00;;
5762;SDS011;2906;53.282;9.508;2023-04-03T04:45:48;13.68;;;2.80;;
5762;SDS011;2906;53.282;9.508;2023-04-03T04:46:50;15.90;;;2.65;;
5762;SDS011;2906;53.282;9.508;2023-04-03T04:47:54;14.75;;;2.47;;
5762;SDS011;2906;53.282;9.508;2023-04-03T04:48:57;13.00;;;1.90;;
5762;SDS011;2906;53.282;9.508;2023-04-03T04:49:58;16.35;;;2.30;;
5762;SDS011;2906;53.282;9.508;2023-04-03T04:51:00;17.95;;;2.10;;
5762;SDS011;2906;53.282;9.508;2023-04-03T04:52:02;13.13;;;1.92;;
5762;SDS011;2906;53.282;9.508;2023-04-03T04:53:05;17.08;;;2.38;;
5762;SDS011;2906;53.282;9.508;2023-04-03T04:54:08;11.50;;;1.90;;
5762;SDS011;2906;53.282;9.508;2023-04-03T04:55:12;9.63;;;1.85;;
5762;SDS011;2906;53.282;9.508;2023-04-03T04:56:14;8.45;;;1.80;;
5762;SDS011;2906;53.282;9.508;2023-04-03T04:57:16;12.48;;;2.10;;
5762;SDS011;2906;53.282;9.508;2023-04-03T04:58:18;11.30;;;1.95;;
5762;SDS011;2906;53.282;9.508;2023-04-03T04:59:19;13.13;;;2.10;;
5762;SDS011;2906;53.282;9.508;2023-04-03T05:00:22;10.90;;;2.05;;
5762;SDS011;2906;53.282;9.508;2023-04-03T05:01:23;16.67;;;2.60;;
5762;SDS011;2906;53.282;9.508;2023-04-03T05:02:25;22.77;;;2.60;;
5762;SDS011;2906;53.282;9.508;2023-04-03T05:03:28;16.63;;;2.67;;
5762;SDS011;2906;53.282;9.508;2023-04-03T05:04:30;14.85;;;2.90;;
5762;SDS011;2906;53.282;9.508;2023-04-03T05:05:33;10.43;;;2.67;;
5762;SDS011;2906;53.282;9.508;2023-04-03T05:06:35;12.30;;;2.97;;
5762;SDS011;2906;53.282;9.508;2023-04-03T05:07:38;14.30;;;3.03;;
5762;SDS011;2906;53.282;9.508;2023-04-03T05:08:41;14.57;;;2.42;;
5762;SDS011;2906;53.282;9.508;2023-04-03T05:09:44;12.75;;;2.47;;
5762;SDS011;2906;53.282;9.508;2023-04-03T05:10:46;13.43;;;2.15;;
5762;SDS011;2906;53.282;9.508;2023-04-03T05:11:48;15.57;;;2.80;;
5762;SDS011;2906;53.282;9.508;2023-04-03T05:12:50;14.38;;;2.58;;
5762;SDS011;2906;53.282;9.508;2023-04-03T05:13:52;14.60;;;2.70;;
5762;SDS011;2906;53.282;9.508;2023-04-03T05:14:54;14.90;;;2.85;;
5762;SDS011;2906;53.282;9.508;2023-04-03T05:15:56;10.15;;;2.22;;
5762;SDS011;2906;53.282;9.508;2023-04-03T05:16:58;13.73;;;2.65;;
5762;SDS011;2906;53.282;9.508;2023-04-03T05:18:00;12.93;;;2.90;;
5762;SDS011;2906;53.282;9.508;2023-04-03T05:19:01;10.25;;;3.30;;
5762;SDS011;2906;53.282;9.508;2023-04-03T05:20:04;17.88;;;3.17;;
5762;SDS011;2906;53.282;9.508;2023-04-03T05:21:06;19.40;;;3.05;;
5762;SDS011;2906;53.282;9.508;2023-04-03T05:22:08;15.80;;;2.85;;
5762;SDS011;2906;53.282;9.508;2023-04-03T05:23:10;15.32;;;2.88;;
5762;SDS011;2906;53.282;9.508;2023-04-03T05:24:12;11.93;;;3.00;;
5762;SDS011;2906;53.282;9.508;2023-04-03T05:25:17;13.55;;;2.58;;
5762;SDS011;2906;53.282;9.508;2023-04-03T05:26:20;14.45;;;3.50;;
5762;SDS011;2906;53.282;9.508;2023-04-03T05:27:21;17.63;;;3.03;;
5762;SDS011;2906;53.282;9.508;2023-04-03T05:28:24;16.20;;;3.67;;
5762;SDS011;2906;53.282;9.508;2023-04-03T05:29:26;11.32;;;3.30;;
5762;SDS011;2906;53.282;9.508;2023-04-03T05:30:28;9.57;;;3.05;;
5762;SDS011;2906;53.282;9.508;2023-04-03T05:31:29;20.27;;;3.15;;
5762;SDS011;2906;53.282;9.508;2023-04-03T05:32:32;11.95;;;2.92;;
5762;SDS011;2906;53.282;9.508;2023-04-03T05:33:33;15.35;;;3.35;;
5762;SDS011;2906;53.282;9.508;2023-04-03T05:34:35;18.38;;;4.35;;
5762;SDS011;2906;53.282;9.508;2023-04-03T05:35:37;13.13;;;4.43;;
5762;SDS011;2906;53.282;9.508;2023-04-03T05:36:41;13.98;;;3.20;;
5762;SDS011;2906;53.282;9.508;2023-04-03T05:37:42;18.60;;;4.03;;
5762;SDS011;2906;53.282;9.508;2023-04-03T05:38:45;13.70;;;3.92;;
5762;SDS011;2906;53.282;9.508;2023-04-03T05:39:46;22.58;;;4.40;;
5762;SDS011;2906;53.282;9.508;2023-04-03T05:40:50;12.82;;;3.40;;
5762;SDS011;2906;53.282;9.508;2023-04-03T05:41:52;13.90;;;3.90;;
5762;SDS011;2906;53.282;9.508;2023-04-03T05:42:54;15.18;;;3.70;;
5762;SDS011;2906;53.282;9.508;2023-04-03T05:43:56;18.23;;;4.25;;
5762;SDS011;2906;53.282;9.508;2023-04-03T05:44:58;15.15;;;3.88;;
5762;SDS011;2906;53.282;9.508;2023-04-03T05:46:00;15.35;;;3.80;;
5762;SDS011;2906;53.282;9.508;2023-04-03T05:47:01;11.90;;;3.53;;
5762;SDS011;2906;53.282;9.508;2023-04-03T05:48:04;15.40;;;3.40;;
5762;SDS011;2906;53.282;9.508;2023-04-03T05:49:05;14.85;;;4.40;;
5762;SDS011;2906;53.282;9.508;2023-04-03T05:50:08;19.90;;;3.88;;
5762;SDS011;2906;53.282;9.508;2023-04-03T05:51:13;13.93;;;4.03;;
5762;SDS011;2906;53.282;9.508;2023-04-03T05:52:17;20.20;;;4.05;;
5762;SDS011;2906;53.282;9.508;2023-04-03T05:53:23;16.23;;;3.50;;
5762;SDS011;2906;53.282;9.508;2023-04-03T05:54:26;16.17;;;3.90;;
5762;SDS011;2906;53.282;9.508;2023-04-03T05:55:29;15.80;;;4.45;;
5762;SDS011;2906;53.282;9.508;2023-04-03T05:56:32;14.90;;;4.28;;
5762;SDS011;2906;53.282;9.508;2023-04-03T05:57:36;16.63;;;3.30;;
5762;SDS011;2906;53.282;9.508;2023-04-03T05:58:38;13.65;;;4.03;;
5762;SDS011;2906;53.282;9.508;2023-04-03T05:59:40;15.25;;;3.70;;
5762;SDS011;2906;53.282;9.508;2023-04-03T06:00:41;12.93;;;3.47;;
5762;SDS011;2906;53.282;9.508;2023-04-03T06:01:45;14.38;;;3.38;;
5762;SDS011;2906;53.282;9.508;2023-04-03T06:02:48;11.45;;;4.05;;
5762;SDS011;2906;53.282;9.508;2023-04-03T06:03:51;12.70;;;3.70;;
5762;SDS011;2906;53.282;9.508;2023-04-03T06:04:52;14.80;;;3.42;;
5762;SDS011;2906;53.282;9.508;2023-04-03T06:05:55;12.23;;;3.45;;
5762;SDS011;2906;53.282;9.508;2023-04-03T06:06:57;14.95;;;2.97;;
5762;SDS011;2906;53.282;9.508;2023-04-03T06:08:00;15.07;;;3.40;;
5762;SDS011;2906;53.282;9.508;2023-04-03T06:09:01;12.90;;;3.10;;
5762;SDS011;2906;53.282;9.508;2023-04-03T06:10:05;12.27;;;2.83;;
5762;SDS011;2906;53.282;9.508;2023-04-03T06:11:11;13.75;;;2.97;;
5762;SDS011;2906;53.282;9.508;2023-04-03T06:12:14;23.58;;;3.35;;
5762;SDS011;2906;53.282;9.508;2023-04-03T06:13:17;18.63;;;2.67;;
5762;SDS011;2906;53.282;9.508;2023-04-03T06:14:18;12.68;;;2.75;;
5762;SDS011;2906;53.282;9.508;2023-04-03T06:15:21;16.85;;;3.45;;
5762;SDS011;2906;53.282;9.508;2023-04-03T06:16:22;13.60;;;2.65;;
5762;SDS011;2906;53.282;9.508;2023-04-03T06:17:25;15.95;;;2.88;;
5762;SDS011;2906;53.282;9.508;2023-04-03T06:18:27;12.93;;;2.42;;
5762;SDS011;2906;53.282;9.508;2023-04-03T06:19:30;18.50;;;2.83;;
5762;SDS011;2906;53.282;9.508;2023-04-03T06:20:32;15.13;;;2.70;;
5762;SDS011;2906;53.282;9.508;2023-04-03T06:21:34;15.80;;;2.40;;
5762;SDS011;2906;53.282;9.508;2023-04-03T06:22:37;14.20;;;3.15;;
5762;SDS011;2906;53.282;9.508;2023-04-03T06:23:41;11.88;;;2.20;;